Monday, November 20, 2017, 7:44 AM GMT
Back to Local

CWQH, Lennoxville

Location: , , Canada Lat: 45.367
Local Time: 7:44 AM GMT ( 7:44 GMT) Lon: -71.817
Time Zone: GMT Elev: 593 ft

Show me the last for .
Show Coded

Time T Td Feel RH Dir Speed Gust Alt SLP Vis Weather Sky Remarks
2017-11-20 07:00 26 21 17 80 270° 9 - - - 0 Peak wind: 21 mph (19 kts) from 290° at 02 min
2017-11-20 06:00 26 20 12 77 290° 14 23 - - 0 Peak wind: 26 mph (23 kts) from 290° at 41 min
2017-11-20 05:00 27 22 13 83 280° 13 20 - - 0 Peak wind: 19 mph (17 kts) from 250° at 50 min
2017-11-20 04:00 28 23 14 81 270° 13 21 - - 0 Peak wind: 23 mph (20 kts) from 290° at 22 min
2017-11-20 03:00 28 22 15 76 270° 14 21 - - 0 Peak wind: 26 mph (23 kts) from 290° at 24 min
2017-11-20 02:00 29 23 17 79 270° 12 17 - - 0 Peak wind: 25 mph (22 kts) from 270° at 01 min
2017-11-20 01:00 29 24 15 81 260° 10 22 - - 0 Peak wind: 23 mph (20 kts) from 270° at 06 min
2017-11-20 00:00 29 24 15 79 270° 15 23 - - 0 Peak wind: 24 mph (21 kts) from 290° at 04 min
2017-11-19 23:00 29 23 14 77 270° 17 26 - - 0 Peak wind: 26 mph (23 kts) from 290° at 51 min
2017-11-19 22:00 29 23 16 78 270° 13 21 - - 0 Peak wind: 35 mph (31 kts) from 270° at 10 min
2017-11-19 21:00 30 25 15 82 260° 17 26 - - 0 Peak wind: 27 mph (24 kts) from 300° at 30 min
2017-11-19 20:00 30 27 16 86 250° 18 26 - - 0 Peak wind: 26 mph (23 kts) from 250° at 58 min
2017-11-19 19:00 32 29 18 87 260° 18 28 - - 0 Peak wind: 31 mph (27 kts) from 250° at 45 min
2017-11-19 18:00 34 32 22 91 240° 13 20 - - 0 Peak wind: 26 mph (23 kts) from 260° at 14 min
2017-11-19 17:00 35 33 25 91 250° 12 20 - - 0 Peak wind: 31 mph (27 kts) from 270° at 05 min
2017-11-19 16:00 42 42 32 100 260° 17 26 - - 0 Peak wind: 26 mph (23 kts) from 280° at 54 min
1-hr Precip Total: 0.09"
2017-11-19 15:00 41 41 - 100 330° 2 - - - 0 None
2017-11-19 14:00 39 39 35 100 40° 6 - - - 0 1-hr Precip Total: 0.05"
2017-11-19 13:00 38 38 34 100 40° 6 - - - 0 1-hr Precip Total: 0.07"
2017-11-19 12:00 37 37 31 100 40° 7 - - - 0 1-hr Precip Total: 0.11"
2017-11-19 11:00 37 37 34 99 50° 3 - - - 0 1-hr Precip Total: 0.04"
2017-11-19 10:00 37 37 34 100 70° 3 - - - 0 None
2017-11-19 09:00 39 38 36 97 90° 3 - - - 0 1-hr Precip Total: 0.05"
2017-11-19 08:00 38 38 36 97 100° 3 - - - 0 None

Support USWX by starting your Amazon purchase here.